sensor_id;sensor_type;location;lat;lon;timestamp;P1;durP1;ratioP1;P2;durP2;ratioP2
51190;SDS011;37253;48.736;9.294;2022-10-31T00:00:59;4.70;;;3.13;;
51190;SDS011;37253;48.736;9.294;2022-10-31T00:02:59;4.50;;;2.97;;
51190;SDS011;37253;48.736;9.294;2022-10-31T00:05:00;7.85;;;3.20;;
51190;SDS011;37253;48.736;9.294;2022-10-31T00:07:00;6.45;;;2.60;;
51190;SDS011;37253;48.736;9.294;2022-10-31T00:09:02;5.40;;;2.95;;
51190;SDS011;37253;48.736;9.294;2022-10-31T00:11:07;6.45;;;3.33;;
51190;SDS011;37253;48.736;9.294;2022-10-31T00:13:09;8.05;;;3.15;;
51190;SDS011;37253;48.736;9.294;2022-10-31T00:15:09;7.18;;;3.00;;
51190;SDS011;37253;48.736;9.294;2022-10-31T00:17:10;6.85;;;3.17;;
51190;SDS011;37253;48.736;9.294;2022-10-31T00:19:10;5.95;;;2.72;;
51190;SDS011;37253;48.736;9.294;2022-10-31T00:21:10;4.35;;;2.85;;
51190;SDS011;37253;48.736;9.294;2022-10-31T00:23:11;5.38;;;3.15;;
51190;SDS011;37253;48.736;9.294;2022-10-31T00:25:11;4.25;;;2.72;;
51190;SDS011;37253;48.736;9.294;2022-10-31T00:27:11;6.55;;;3.42;;
51190;SDS011;37253;48.736;9.294;2022-10-31T00:29:12;4.28;;;3.00;;
51190;SDS011;37253;48.736;9.294;2022-10-31T00:31:12;5.10;;;2.83;;
51190;SDS011;37253;48.736;9.294;2022-10-31T00:33:13;4.22;;;2.88;;
51190;SDS011;37253;48.736;9.294;2022-10-31T00:35:13;4.53;;;2.90;;
51190;SDS011;37253;48.736;9.294;2022-10-31T00:37:13;4.07;;;2.78;;
51190;SDS011;37253;48.736;9.294;2022-10-31T00:39:14;5.22;;;2.83;;
51190;SDS011;37253;48.736;9.294;2022-10-31T00:41:14;4.55;;;2.83;;
51190;SDS011;37253;48.736;9.294;2022-10-31T00:43:16;7.47;;;2.72;;
51190;SDS011;37253;48.736;9.294;2022-10-31T00:45:16;3.97;;;2.80;;
51190;SDS011;37253;48.736;9.294;2022-10-31T00:47:16;4.30;;;2.95;;
51190;SDS011;37253;48.736;9.294;2022-10-31T00:49:17;5.25;;;2.88;;
51190;SDS011;37253;48.736;9.294;2022-10-31T00:51:17;3.78;;;2.22;;
51190;SDS011;37253;48.736;9.294;2022-10-31T00:53:17;5.82;;;2.95;;
51190;SDS011;37253;48.736;9.294;2022-10-31T00:55:18;5.25;;;2.65;;
51190;SDS011;37253;48.736;9.294;2022-10-31T00:57:18;4.40;;;2.78;;
51190;SDS011;37253;48.736;9.294;2022-10-31T00:59:18;5.88;;;3.30;;
51190;SDS011;37253;48.736;9.294;2022-10-31T01:01:18;4.55;;;2.67;;
51190;SDS011;37253;48.736;9.294;2022-10-31T01:03:19;5.43;;;2.72;;
51190;SDS011;37253;48.736;9.294;2022-10-31T01:05:19;4.20;;;2.40;;
51190;SDS011;37253;48.736;9.294;2022-10-31T01:07:20;5.65;;;3.00;;
51190;SDS011;37253;48.736;9.294;2022-10-31T01:09:20;3.95;;;2.90;;
51190;SDS011;37253;48.736;9.294;2022-10-31T01:11:22;5.22;;;2.97;;
51190;SDS011;37253;48.736;9.294;2022-10-31T01:13:22;4.30;;;2.80;;
51190;SDS011;37253;48.736;9.294;2022-10-31T01:15:23;3.53;;;2.53;;
51190;SDS011;37253;48.736;9.294;2022-10-31T01:17:23;4.68;;;2.88;;
51190;SDS011;37253;48.736;9.294;2022-10-31T01:19:23;6.07;;;2.90;;
51190;SDS011;37253;48.736;9.294;2022-10-31T01:21:25;4.47;;;2.78;;
51190;SDS011;37253;48.736;9.294;2022-10-31T01:23:26;4.15;;;3.03;;
51190;SDS011;37253;48.736;9.294;2022-10-31T01:25:27;6.35;;;3.00;;
51190;SDS011;37253;48.736;9.294;2022-10-31T01:27:27;5.10;;;2.92;;
51190;SDS011;37253;48.736;9.294;2022-10-31T01:29:28;3.78;;;2.70;;
51190;SDS011;37253;48.736;9.294;2022-10-31T01:31:29;3.15;;;2.47;;
51190;SDS011;37253;48.736;9.294;2022-10-31T01:33:30;3.67;;;2.47;;
51190;SDS011;37253;48.736;9.294;2022-10-31T01:35:31;4.53;;;2.40;;
51190;SDS011;37253;48.736;9.294;2022-10-31T01:37:31;5.30;;;2.63;;
51190;SDS011;37253;48.736;9.294;2022-10-31T01:39:31;5.22;;;2.83;;
51190;SDS011;37253;48.736;9.294;2022-10-31T01:41:33;3.42;;;2.50;;
51190;SDS011;37253;48.736;9.294;2022-10-31T01:45:46;6.05;;;2.80;;
51190;SDS011;37253;48.736;9.294;2022-10-31T01:47:51;4.05;;;2.53;;
51190;SDS011;37253;48.736;9.294;2022-10-31T01:49:53;3.95;;;2.47;;
51190;SDS011;37253;48.736;9.294;2022-10-31T01:51:56;4.47;;;2.28;;
51190;SDS011;37253;48.736;9.294;2022-10-31T01:54:00;3.95;;;2.70;;
51190;SDS011;37253;48.736;9.294;2022-10-31T01:56:02;4.20;;;2.67;;
51190;SDS011;37253;48.736;9.294;2022-10-31T01:58:04;3.38;;;2.30;;
51190;SDS011;37253;48.736;9.294;2022-10-31T02:00:08;3.42;;;2.53;;
51190;SDS011;37253;48.736;9.294;2022-10-31T02:02:10;3.85;;;2.15;;
51190;SDS011;37253;48.736;9.294;2022-10-31T02:04:10;4.63;;;2.75;;
51190;SDS011;37253;48.736;9.294;2022-10-31T02:06:13;4.38;;;2.50;;
51190;SDS011;37253;48.736;9.294;2022-10-31T02:08:23;4.57;;;2.40;;
51190;SDS011;37253;48.736;9.294;2022-10-31T02:10:26;5.90;;;2.70;;
51190;SDS011;37253;48.736;9.294;2022-10-31T02:12:27;3.85;;;2.75;;
51190;SDS011;37253;48.736;9.294;2022-10-31T02:14:30;2.63;;;2.20;;
51190;SDS011;37253;48.736;9.294;2022-10-31T02:16:31;5.28;;;2.30;;
51190;SDS011;37253;48.736;9.294;2022-10-31T02:18:31;5.13;;;2.80;;
51190;SDS011;37253;48.736;9.294;2022-10-31T02:23:02;4.75;;;2.35;;
51190;SDS011;37253;48.736;9.294;2022-10-31T02:31:43;3.80;;;2.63;;
51190;SDS011;37253;48.736;9.294;2022-10-31T02:33:50;3.30;;;2.30;;
51190;SDS011;37253;48.736;9.294;2022-10-31T02:36:10;4.32;;;2.63;;
51190;SDS011;37253;48.736;9.294;2022-10-31T02:38:18;2.78;;;2.33;;
51190;SDS011;37253;48.736;9.294;2022-10-31T02:40:25;3.00;;;2.30;;
51190;SDS011;37253;48.736;9.294;2022-10-31T02:46:53;3.45;;;1.85;;
51190;SDS011;37253;48.736;9.294;2022-10-31T02:48:57;2.92;;;2.05;;
51190;SDS011;37253;48.736;9.294;2022-10-31T02:51:04;2.70;;;2.15;;
51190;SDS011;37253;48.736;9.294;2022-10-31T02:53:05;4.28;;;2.50;;
51190;SDS011;37253;48.736;9.294;2022-10-31T02:55:42;4.45;;;2.50;;
51190;SDS011;37253;48.736;9.294;2022-10-31T02:57:35;3.72;;;1.95;;
51190;SDS011;37253;48.736;9.294;2022-10-31T02:59:35;4.47;;;2.05;;
51190;SDS011;37253;48.736;9.294;2022-10-31T03:01:40;3.58;;;2.17;;
51190;SDS011;37253;48.736;9.294;2022-10-31T03:06:30;3.95;;;2.40;;
51190;SDS011;37253;48.736;9.294;2022-10-31T03:08:41;4.85;;;2.60;;
51190;SDS011;37253;48.736;9.294;2022-10-31T03:10:47;2.40;;;1.95;;
51190;SDS011;37253;48.736;9.294;2022-10-31T03:13:01;4.35;;;2.55;;
51190;SDS011;37253;48.736;9.294;2022-10-31T03:15:11;2.83;;;1.88;;
51190;SDS011;37253;48.736;9.294;2022-10-31T03:17:34;3.45;;;2.33;;
51190;SDS011;37253;48.736;9.294;2022-10-31T03:19:40;4.18;;;2.50;;
51190;SDS011;37253;48.736;9.294;2022-10-31T03:21:43;4.05;;;2.35;;
51190;SDS011;37253;48.736;9.294;2022-10-31T03:23:46;3.35;;;2.45;;
51190;SDS011;37253;48.736;9.294;2022-10-31T03:25:47;3.50;;;2.05;;
51190;SDS011;37253;48.736;9.294;2022-10-31T03:27:48;2.90;;;1.95;;
51190;SDS011;37253;48.736;9.294;2022-10-31T03:29:51;3.55;;;2.38;;
51190;SDS011;37253;48.736;9.294;2022-10-31T03:31:55;4.68;;;2.47;;
51190;SDS011;37253;48.736;9.294;2022-10-31T03:33:59;3.63;;;2.50;;
51190;SDS011;37253;48.736;9.294;2022-10-31T03:36:00;3.38;;;2.08;;
51190;SDS011;37253;48.736;9.294;2022-10-31T03:40:04;4.05;;;2.22;;
51190;SDS011;37253;48.736;9.294;2022-10-31T03:42:23;6.70;;;2.08;;
51190;SDS011;37253;48.736;9.294;2022-10-31T03:44:24;3.75;;;2.10;;
51190;SDS011;37253;48.736;9.294;2022-10-31T03:46:26;4.97;;;2.40;;
51190;SDS011;37253;48.736;9.294;2022-10-31T03:48:27;3.15;;;2.05;;
51190;SDS011;37253;48.736;9.294;2022-10-31T03:50:29;3.47;;;2.20;;
51190;SDS011;37253;48.736;9.294;2022-10-31T03:52:55;3.42;;;2.42;;
51190;SDS011;37253;48.736;9.294;2022-10-31T03:55:05;3.65;;;2.22;;
51190;SDS011;37253;48.736;9.294;2022-10-31T03:59:35;3.15;;;2.00;;
51190;SDS011;37253;48.736;9.294;2022-10-31T04:01:39;2.97;;;2.20;;
51190;SDS011;37253;48.736;9.294;2022-10-31T04:03:41;2.80;;;2.13;;
51190;SDS011;37253;48.736;9.294;2022-10-31T04:05:43;3.47;;;1.95;;
51190;SDS011;37253;48.736;9.294;2022-10-31T04:07:46;3.00;;;2.33;;
51190;SDS011;37253;48.736;9.294;2022-10-31T04:09:47;3.17;;;2.08;;
51190;SDS011;37253;48.736;9.294;2022-10-31T04:11:50;2.72;;;1.90;;
51190;SDS011;37253;48.736;9.294;2022-10-31T04:13:52;3.20;;;1.85;;
51190;SDS011;37253;48.736;9.294;2022-10-31T04:15:53;3.50;;;2.30;;
51190;SDS011;37253;48.736;9.294;2022-10-31T04:17:55;3.72;;;2.00;;
51190;SDS011;37253;48.736;9.294;2022-10-31T04:19:58;4.07;;;2.45;;
51190;SDS011;37253;48.736;9.294;2022-10-31T04:22:00;5.68;;;2.63;;
51190;SDS011;37253;48.736;9.294;2022-10-31T04:24:00;3.30;;;1.80;;
51190;SDS011;37253;48.736;9.294;2022-10-31T04:26:01;4.65;;;2.08;;
51190;SDS011;37253;48.736;9.294;2022-10-31T04:28:01;3.63;;;1.85;;
51190;SDS011;37253;48.736;9.294;2022-10-31T04:30:01;2.85;;;1.98;;
51190;SDS011;37253;48.736;9.294;2022-10-31T04:32:02;2.30;;;1.77;;
51190;SDS011;37253;48.736;9.294;2022-10-31T04:34:02;3.67;;;2.25;;
51190;SDS011;37253;48.736;9.294;2022-10-31T04:36:03;3.17;;;2.03;;
51190;SDS011;37253;48.736;9.294;2022-10-31T04:38:04;2.90;;;1.92;;
51190;SDS011;37253;48.736;9.294;2022-10-31T04:40:05;3.63;;;1.90;;
51190;SDS011;37253;48.736;9.294;2022-10-31T04:42:05;3.15;;;1.70;;
51190;SDS011;37253;48.736;9.294;2022-10-31T04:44:06;5.40;;;2.20;;
51190;SDS011;37253;48.736;9.294;2022-10-31T04:46:06;2.55;;;1.85;;
51190;SDS011;37253;48.736;9.294;2022-10-31T04:48:06;2.97;;;1.90;;
51190;SDS011;37253;48.736;9.294;2022-10-31T04:50:07;2.40;;;1.83;;
51190;SDS011;37253;48.736;9.294;2022-10-31T04:52:08;3.88;;;2.00;;
51190;SDS011;37253;48.736;9.294;2022-10-31T04:54:08;3.58;;;2.25;;
51190;SDS011;37253;48.736;9.294;2022-10-31T04:56:08;3.58;;;2.08;;
51190;SDS011;37253;48.736;9.294;2022-10-31T04:58:09;3.38;;;2.17;;
51190;SDS011;37253;48.736;9.294;2022-10-31T05:00:09;2.22;;;1.98;;
51190;SDS011;37253;48.736;9.294;2022-10-31T05:02:11;3.10;;;2.15;;
51190;SDS011;37253;48.736;9.294;2022-10-31T05:04:11;3.05;;;2.05;;
51190;SDS011;37253;48.736;9.294;2022-10-31T05:06:11;2.45;;;1.70;;
51190;SDS011;37253;48.736;9.294;2022-10-31T05:08:11;2.63;;;1.80;;
51190;SDS011;37253;48.736;9.294;2022-10-31T05:10:13;2.50;;;2.08;;
51190;SDS011;37253;48.736;9.294;2022-10-31T05:12:14;3.65;;;1.90;;
51190;SDS011;37253;48.736;9.294;2022-10-31T05:14:15;3.17;;;2.22;;
51190;SDS011;37253;48.736;9.294;2022-10-31T05:16:15;2.88;;;2.00;;
51190;SDS011;37253;48.736;9.294;2022-10-31T05:18:15;3.22;;;1.92;;
51190;SDS011;37253;48.736;9.294;2022-10-31T05:20:16;3.58;;;2.20;;
51190;SDS011;37253;48.736;9.294;2022-10-31T05:22:17;2.72;;;1.92;;
51190;SDS011;37253;48.736;9.294;2022-10-31T05:24:18;2.38;;;1.70;;
51190;SDS011;37253;48.736;9.294;2022-10-31T05:26:21;2.08;;;1.77;;
51190;SDS011;37253;48.736;9.294;2022-10-31T05:28:21;2.80;;;1.88;;
51190;SDS011;37253;48.736;9.294;2022-10-31T05:30:26;2.90;;;1.80;;
51190;SDS011;37253;48.736;9.294;2022-10-31T05:32:28;3.30;;;2.35;;
51190;SDS011;37253;48.736;9.294;2022-10-31T05:34:29;2.85;;;1.88;;
51190;SDS011;37253;48.736;9.294;2022-10-31T05:36:29;1.63;;;1.52;;
51190;SDS011;37253;48.736;9.294;2022-10-31T05:38:30;4.03;;;1.90;;
51190;SDS011;37253;48.736;9.294;2022-10-31T05:40:30;2.60;;;1.50;;
51190;SDS011;37253;48.736;9.294;2022-10-31T05:42:30;5.93;;;2.25;;
51190;SDS011;37253;48.736;9.294;2022-10-31T05:44:31;2.75;;;1.80;;
51190;SDS011;37253;48.736;9.294;2022-10-31T05:46:31;2.97;;;2.00;;
51190;SDS011;37253;48.736;9.294;2022-10-31T05:48:31;3.13;;;1.60;;
51190;SDS011;37253;48.736;9.294;2022-10-31T05:50:32;2.38;;;2.10;;
51190;SDS011;37253;48.736;9.294;2022-10-31T05:52:32;4.18;;;2.22;;
51190;SDS011;37253;48.736;9.294;2022-10-31T05:54:33;3.08;;;2.00;;
51190;SDS011;37253;48.736;9.294;2022-10-31T05:56:33;2.55;;;1.70;;
51190;SDS011;37253;48.736;9.294;2022-10-31T05:58:33;2.75;;;1.83;;
51190;SDS011;37253;48.736;9.294;2022-10-31T06:00:34;2.35;;;1.70;;
51190;SDS011;37253;48.736;9.294;2022-10-31T06:02:34;2.30;;;1.70;;
51190;SDS011;37253;48.736;9.294;2022-10-31T06:04:35;2.15;;;1.95;;
51190;SDS011;37253;48.736;9.294;2022-10-31T06:06:35;2.78;;;1.80;;
51190;SDS011;37253;48.736;9.294;2022-10-31T06:08:36;4.38;;;2.28;;
51190;SDS011;37253;48.736;9.294;2022-10-31T06:10:36;2.78;;;1.70;;
51190;SDS011;37253;48.736;9.294;2022-10-31T06:12:36;2.47;;;1.98;;
51190;SDS011;37253;48.736;9.294;2022-10-31T06:14:37;3.08;;;1.63;;
51190;SDS011;37253;48.736;9.294;2022-10-31T06:16:37;3.03;;;1.70;;
51190;SDS011;37253;48.736;9.294;2022-10-31T06:18:38;4.38;;;1.98;;
51190;SDS011;37253;48.736;9.294;2022-10-31T06:20:38;3.65;;;1.90;;
51190;SDS011;37253;48.736;9.294;2022-10-31T06:22:38;2.95;;;1.63;;
51190;SDS011;37253;48.736;9.294;2022-10-31T06:24:39;4.43;;;1.63;;
51190;SDS011;37253;48.736;9.294;2022-10-31T06:26:39;3.85;;;1.83;;
51190;SDS011;37253;48.736;9.294;2022-10-31T06:28:39;2.55;;;1.80;;
51190;SDS011;37253;48.736;9.294;2022-10-31T06:30:40;2.53;;;1.80;;
51190;SDS011;37253;48.736;9.294;2022-10-31T06:32:40;4.03;;;2.10;;
51190;SDS011;37253;48.736;9.294;2022-10-31T06:34:40;2.80;;;1.85;;
51190;SDS011;37253;48.736;9.294;2022-10-31T06:36:41;3.33;;;1.77;;
51190;SDS011;37253;48.736;9.294;2022-10-31T06:38:41;3.65;;;2.03;;
51190;SDS011;37253;48.736;9.294;2022-10-31T06:40:42;2.38;;;1.85;;
51190;SDS011;37253;48.736;9.294;2022-10-31T06:42:42;5.70;;;2.03;;
51190;SDS011;37253;48.736;9.294;2022-10-31T06:44:42;2.83;;;1.80;;
51190;SDS011;37253;48.736;9.294;2022-10-31T06:46:42;3.60;;;1.60;;
51190;SDS011;37253;48.736;9.294;2022-10-31T06:48:43;4.90;;;1.63;;
51190;SDS011;37253;48.736;9.294;2022-10-31T06:50:43;2.70;;;1.70;;
51190;SDS011;37253;48.736;9.294;2022-10-31T06:52:49;3.20;;;1.88;;
51190;SDS011;37253;48.736;9.294;2022-10-31T06:54:50;3.92;;;2.03;;
51190;SDS011;37253;48.736;9.294;2022-10-31T06:56:50;4.35;;;1.92;;
51190;SDS011;37253;48.736;9.294;2022-10-31T06:58:50;3.45;;;1.95;;
51190;SDS011;37253;48.736;9.294;2022-10-31T07:00:51;6.75;;;1.70;;
51190;SDS011;37253;48.736;9.294;2022-10-31T07:03:01;3.50;;;1.70;;
51190;SDS011;37253;48.736;9.294;2022-10-31T07:05:03;5.40;;;1.80;;
51190;SDS011;37253;48.736;9.294;2022-10-31T07:07:03;4.43;;;1.90;;
51190;SDS011;37253;48.736;9.294;2022-10-31T07:09:04;33.70;;;2.92;;
51190;SDS011;37253;48.736;9.294;2022-10-31T07:11:04;27.42;;;2.88;;
51190;SDS011;37253;48.736;9.294;2022-10-31T07:13:05;18.88;;;2.25;;
51190;SDS011;37253;48.736;9.294;2022-10-31T07:15:08;17.98;;;2.30;;
51190;SDS011;37253;48.736;9.294;2022-10-31T07:17:09;19.52;;;2.53;;
51190;SDS011;37253;48.736;9.294;2022-10-31T07:19:09;11.68;;;3.05;;
51190;SDS011;37253;48.736;9.294;2022-10-31T07:21:09;14.48;;;2.67;;
51190;SDS011;37253;48.736;9.294;2022-10-31T07:23:10;12.13;;;3.40;;
51190;SDS011;37253;48.736;9.294;2022-10-31T07:25:11;15.65;;;2.78;;
51190;SDS011;37253;48.736;9.294;2022-10-31T07:27:11;10.88;;;2.65;;
51190;SDS011;37253;48.736;9.294;2022-10-31T07:29:11;11.55;;;2.85;;
51190;SDS011;37253;48.736;9.294;2022-10-31T07:31:12;12.45;;;2.80;;
51190;SDS011;37253;48.736;9.294;2022-10-31T07:33:12;11.02;;;2.60;;
51190;SDS011;37253;48.736;9.294;2022-10-31T07:35:13;8.13;;;2.58;;
51190;SDS011;37253;48.736;9.294;2022-10-31T07:37:15;10.23;;;2.70;;
51190;SDS011;37253;48.736;9.294;2022-10-31T07:39:15;9.88;;;2.53;;
51190;SDS011;37253;48.736;9.294;2022-10-31T07:41:15;8.63;;;2.72;;
51190;SDS011;37253;48.736;9.294;2022-10-31T07:43:16;6.68;;;2.63;;
51190;SDS011;37253;48.736;9.294;2022-10-31T07:45:17;7.60;;;2.60;;
51190;SDS011;37253;48.736;9.294;2022-10-31T07:47:18;9.98;;;2.40;;
51190;SDS011;37253;48.736;9.294;2022-10-31T07:49:18;6.78;;;2.88;;
51190;SDS011;37253;48.736;9.294;2022-10-31T07:51:19;8.02;;;2.40;;
51190;SDS011;37253;48.736;9.294;2022-10-31T07:53:19;6.70;;;2.13;;
51190;SDS011;37253;48.736;9.294;2022-10-31T07:55:19;9.57;;;2.38;;
51190;SDS011;37253;48.736;9.294;2022-10-31T07:57:19;10.38;;;2.38;;
51190;SDS011;37253;48.736;9.294;2022-10-31T07:59:20;16.33;;;2.72;;
51190;SDS011;37253;48.736;9.294;2022-10-31T08:01:20;11.65;;;2.83;;
51190;SDS011;37253;48.736;9.294;2022-10-31T08:03:20;10.48;;;2.72;;
51190;SDS011;37253;48.736;9.294;2022-10-31T08:05:21;9.40;;;2.63;;
51190;SDS011;37253;48.736;9.294;2022-10-31T08:07:21;6.80;;;2.50;;
51190;SDS011;37253;48.736;9.294;2022-10-31T08:09:21;14.18;;;3.38;;
51190;SDS011;37253;48.736;9.294;2022-10-31T08:11:22;7.97;;;2.55;;
51190;SDS011;37253;48.736;9.294;2022-10-31T08:13:22;9.07;;;2.72;;
51190;SDS011;37253;48.736;9.294;2022-10-31T08:15:22;7.88;;;2.70;;
51190;SDS011;37253;48.736;9.294;2022-10-31T08:17:23;9.68;;;2.38;;
51190;SDS011;37253;48.736;9.294;2022-10-31T08:19:23;8.32;;;3.30;;
51190;SDS011;37253;48.736;9.294;2022-10-31T08:21:23;12.57;;;2.70;;
51190;SDS011;37253;48.736;9.294;2022-10-31T08:23:27;9.25;;;2.25;;
51190;SDS011;37253;48.736;9.294;2022-10-31T08:27:28;10.18;;;2.20;;
51190;SDS011;37253;48.736;9.294;2022-10-31T08:29:28;10.10;;;2.55;;
51190;SDS011;37253;48.736;9.294;2022-10-31T08:31:29;8.05;;;2.30;;
51190;SDS011;37253;48.736;9.294;2022-10-31T08:33:29;6.20;;;2.28;;
51190;SDS011;37253;48.736;9.294;2022-10-31T08:35:29;13.07;;;2.88;;
51190;SDS011;37253;48.736;9.294;2022-10-31T08:37:30;6.95;;;2.30;;
51190;SDS011;37253;48.736;9.294;2022-10-31T08:39:30;9.52;;;2.92;;
51190;SDS011;37253;48.736;9.294;2022-10-31T08:41:31;5.93;;;2.20;;
51190;SDS011;37253;48.736;9.294;2022-10-31T08:43:31;6.85;;;2.25;;
51190;SDS011;37253;48.736;9.294;2022-10-31T08:45:32;10.27;;;2.50;;
51190;SDS011;37253;48.736;9.294;2022-10-31T08:47:33;4.70;;;2.15;;
51190;SDS011;37253;48.736;9.294;2022-10-31T08:49:33;8.65;;;2.35;;
51190;SDS011;37253;48.736;9.294;2022-10-31T08:51:33;10.63;;;2.80;;
51190;SDS011;37253;48.736;9.294;2022-10-31T08:53:34;5.22;;;1.90;;
51190;SDS011;37253;48.736;9.294;2022-10-31T08:55:34;6.45;;;2.33;;
51190;SDS011;37253;48.736;9.294;2022-10-31T08:57:35;6.38;;;2.17;;
51190;SDS011;37253;48.736;9.294;2022-10-31T08:59:35;5.15;;;2.25;;
51190;SDS011;37253;48.736;9.294;2022-10-31T09:01:36;18.45;;;2.50;;
51190;SDS011;37253;48.736;9.294;2022-10-31T09:03:36;13.32;;;2.72;;
51190;SDS011;37253;48.736;9.294;2022-10-31T09:05:36;7.43;;;2.63;;
51190;SDS011;37253;48.736;9.294;2022-10-31T09:07:36;8.38;;;2.58;;
51190;SDS011;37253;48.736;9.294;2022-10-31T09:09:37;10.43;;;2.55;;
51190;SDS011;37253;48.736;9.294;2022-10-31T09:11:37;12.40;;;2.22;;
51190;SDS011;37253;48.736;9.294;2022-10-31T09:13:37;6.00;;;2.55;;
51190;SDS011;37253;48.736;9.294;2022-10-31T09:15:38;6.38;;;2.75;;
51190;SDS011;37253;48.736;9.294;2022-10-31T09:17:45;8.38;;;3.03;;
51190;SDS011;37253;48.736;9.294;2022-10-31T09:19:46;14.57;;;2.65;;
51190;SDS011;37253;48.736;9.294;2022-10-31T09:21:46;7.25;;;2.60;;
51190;SDS011;37253;48.736;9.294;2022-10-31T09:23:46;9.20;;;2.17;;
51190;SDS011;37253;48.736;9.294;2022-10-31T09:25:47;12.20;;;3.03;;
51190;SDS011;37253;48.736;9.294;2022-10-31T09:27:48;7.97;;;2.80;;
51190;SDS011;37253;48.736;9.294;2022-10-31T09:29:49;9.20;;;2.78;;
51190;SDS011;37253;48.736;9.294;2022-10-31T09:31:49;7.15;;;2.55;;
51190;SDS011;37253;48.736;9.294;2022-10-31T09:33:49;7.93;;;2.85;;
51190;SDS011;37253;48.736;9.294;2022-10-31T09:35:52;8.30;;;2.60;;
51190;SDS011;37253;48.736;9.294;2022-10-31T09:37:53;7.82;;;2.45;;
51190;SDS011;37253;48.736;9.294;2022-10-31T09:39:55;10.90;;;2.30;;
51190;SDS011;37253;48.736;9.294;2022-10-31T09:51:37;7.82;;;3.35;;
51190;SDS011;37253;48.736;9.294;2022-10-31T09:53:43;7.72;;;2.83;;
51190;SDS011;37253;48.736;9.294;2022-10-31T09:55:45;10.18;;;3.60;;
51190;SDS011;37253;48.736;9.294;2022-10-31T09:57:47;8.15;;;2.83;;
51190;SDS011;37253;48.736;9.294;2022-10-31T09:59:48;7.38;;;3.13;;
51190;SDS011;37253;48.736;9.294;2022-10-31T10:01:51;7.60;;;3.08;;
51190;SDS011;37253;48.736;9.294;2022-10-31T10:03:57;8.82;;;2.50;;
51190;SDS011;37253;48.736;9.294;2022-10-31T10:06:13;11.95;;;2.63;;
51190;SDS011;37253;48.736;9.294;2022-10-31T10:08:18;6.63;;;3.35;;
51190;SDS011;37253;48.736;9.294;2022-10-31T10:32:22;6.28;;;2.88;;
51190;SDS011;37253;48.736;9.294;2022-10-31T10:34:28;8.55;;;2.72;;
51190;SDS011;37253;48.736;9.294;2022-10-31T10:45:32;3.97;;;2.33;;
51190;SDS011;37253;48.736;9.294;2022-10-31T10:47:53;6.30;;;2.90;;
51190;SDS011;37253;48.736;9.294;2022-10-31T10:49:58;6.97;;;2.50;;
51190;SDS011;37253;48.736;9.294;2022-10-31T10:58:34;4.43;;;2.20;;
51190;SDS011;37253;48.736;9.294;2022-10-31T11:02:49;4.53;;;2.65;;
51190;SDS011;37253;48.736;9.294;2022-10-31T11:04:51;6.80;;;2.53;;
51190;SDS011;37253;48.736;9.294;2022-10-31T11:07:00;5.65;;;2.83;;
51190;SDS011;37253;48.736;9.294;2022-10-31T11:09:10;12.27;;;2.90;;
51190;SDS011;37253;48.736;9.294;2022-10-31T11:13:26;9.73;;;2.30;;
51190;SDS011;37253;48.736;9.294;2022-10-31T11:15:27;6.60;;;2.20;;
51190;SDS011;37253;48.736;9.294;2022-10-31T11:17:32;10.20;;;2.28;;
51190;SDS011;37253;48.736;9.294;2022-10-31T11:19:34;5.43;;;2.72;;
51190;SDS011;37253;48.736;9.294;2022-10-31T11:21:35;6.22;;;2.10;;
51190;SDS011;37253;48.736;9.294;2022-10-31T11:23:35;8.48;;;2.50;;
51190;SDS011;37253;48.736;9.294;2022-10-31T11:25:35;11.75;;;2.20;;
51190;SDS011;37253;48.736;9.294;2022-10-31T11:27:36;6.18;;;2.35;;
51190;SDS011;37253;48.736;9.294;2022-10-31T11:29:36;5.68;;;2.15;;
51190;SDS011;37253;48.736;9.294;2022-10-31T11:31:36;4.45;;;1.90;;
51190;SDS011;37253;48.736;9.294;2022-10-31T11:35:39;5.97;;;2.25;;
51190;SDS011;37253;48.736;9.294;2022-10-31T11:37:41;9.75;;;2.20;;
51190;SDS011;37253;48.736;9.294;2022-10-31T11:41:44;7.88;;;2.40;;
51190;SDS011;37253;48.736;9.294;2022-10-31T11:43:49;7.53;;;2.40;;
51190;SDS011;37253;48.736;9.294;2022-10-31T11:45:51;5.47;;;2.20;;
51190;SDS011;37253;48.736;9.294;2022-10-31T11:47:52;6.13;;;2.50;;
51190;SDS011;37253;48.736;9.294;2022-10-31T11:49:55;8.40;;;3.25;;
51190;SDS011;37253;48.736;9.294;2022-10-31T11:51:56;5.25;;;2.42;;
51190;SDS011;37253;48.736;9.294;2022-10-31T11:53:59;6.70;;;2.28;;
51190;SDS011;37253;48.736;9.294;2022-10-31T11:56:09;8.32;;;2.17;;
51190;SDS011;37253;48.736;9.294;2022-10-31T11:58:23;10.52;;;2.40;;
51190;SDS011;37253;48.736;9.294;2022-10-31T12:00:26;10.02;;;2.53;;
51190;SDS011;37253;48.736;9.294;2022-10-31T12:02:30;10.63;;;2.20;;
51190;SDS011;37253;48.736;9.294;2022-10-31T12:04:37;5.60;;;2.08;;
51190;SDS011;37253;48.736;9.294;2022-10-31T12:06:44;6.30;;;2.22;;
51190;SDS011;37253;48.736;9.294;2022-10-31T12:08:49;7.50;;;2.70;;
51190;SDS011;37253;48.736;9.294;2022-10-31T12:10:56;7.47;;;2.38;;
51190;SDS011;37253;48.736;9.294;2022-10-31T12:15:35;3.05;;;2.05;;
51190;SDS011;37253;48.736;9.294;2022-10-31T12:17:50;8.30;;;2.42;;
51190;SDS011;37253;48.736;9.294;2022-10-31T12:24:43;10.95;;;2.50;;
51190;SDS011;37253;48.736;9.294;2022-10-31T12:29:20;3.20;;;1.77;;
51190;SDS011;37253;48.736;9.294;2022-10-31T12:36:40;5.05;;;2.10;;
51190;SDS011;37253;48.736;9.294;2022-10-31T12:39:06;5.75;;;2.30;;
51190;SDS011;37253;48.736;9.294;2022-10-31T12:41:28;4.65;;;2.10;;
51190;SDS011;37253;48.736;9.294;2022-10-31T12:45:56;8.32;;;2.50;;
51190;SDS011;37253;48.736;9.294;2022-10-31T12:50:47;7.05;;;2.30;;
51190;SDS011;37253;48.736;9.294;2022-10-31T12:53:24;4.22;;;2.10;;
51190;SDS011;37253;48.736;9.294;2022-10-31T12:55:48;3.17;;;2.00;;
51190;SDS011;37253;48.736;9.294;2022-10-31T12:57:57;4.53;;;1.95;;
51190;SDS011;37253;48.736;9.294;2022-10-31T13:00:03;5.70;;;2.22;;
51190;SDS011;37253;48.736;9.294;2022-10-31T13:06:37;4.28;;;2.03;;
51190;SDS011;37253;48.736;9.294;2022-10-31T13:08:44;4.60;;;2.03;;
51190;SDS011;37253;48.736;9.294;2022-10-31T13:10:55;5.07;;;1.98;;
51190;SDS011;37253;48.736;9.294;2022-10-31T13:13:05;7.15;;;2.10;;
51190;SDS011;37253;48.736;9.294;2022-10-31T13:17:28;3.50;;;1.98;;
51190;SDS011;37253;48.736;9.294;2022-10-31T13:19:31;5.35;;;2.03;;
51190;SDS011;37253;48.736;9.294;2022-10-31T13:21:36;3.72;;;2.10;;
51190;SDS011;37253;48.736;9.294;2022-10-31T13:23:40;7.80;;;2.55;;
51190;SDS011;37253;48.736;9.294;2022-10-31T13:25:42;18.98;;;2.75;;
51190;SDS011;37253;48.736;9.294;2022-10-31T13:27:51;17.83;;;2.83;;
51190;SDS011;37253;48.736;9.294;2022-10-31T13:30:01;12.40;;;2.35;;
51190;SDS011;37253;48.736;9.294;2022-10-31T13:32:20;8.45;;;3.03;;
51190;SDS011;37253;48.736;9.294;2022-10-31T13:34:31;14.60;;;2.85;;
51190;SDS011;37253;48.736;9.294;2022-10-31T13:36:38;5.97;;;2.05;;
51190;SDS011;37253;48.736;9.294;2022-10-31T13:38:59;9.13;;;2.40;;
51190;SDS011;37253;48.736;9.294;2022-10-31T13:41:31;4.47;;;2.00;;
51190;SDS011;37253;48.736;9.294;2022-10-31T13:46:01;8.68;;;2.20;;
51190;SDS011;37253;48.736;9.294;2022-10-31T13:52:23;4.95;;;2.00;;
51190;SDS011;37253;48.736;9.294;2022-10-31T13:54:34;5.40;;;1.85;;
51190;SDS011;37253;48.736;9.294;2022-10-31T13:56:35;7.85;;;2.20;;
51190;SDS011;37253;48.736;9.294;2022-10-31T13:58:35;6.03;;;2.08;;
51190;SDS011;37253;48.736;9.294;2022-10-31T14:00:36;3.65;;;2.05;;
51190;SDS011;37253;48.736;9.294;2022-10-31T14:02:36;5.25;;;2.20;;
51190;SDS011;37253;48.736;9.294;2022-10-31T14:04:37;8.10;;;2.38;;
51190;SDS011;37253;48.736;9.294;2022-10-31T14:09:05;7.53;;;2.25;;
51190;SDS011;37253;48.736;9.294;2022-10-31T14:11:06;5.60;;;2.55;;
51190;SDS011;37253;48.736;9.294;2022-10-31T14:13:08;3.83;;;2.20;;
51190;SDS011;37253;48.736;9.294;2022-10-31T14:15:19;9.82;;;2.70;;